sensor_id;sensor_type;location;lat;lon;timestamp;P1;durP1;ratioP1;P2;durP2;ratioP2
74898;SDS011;63458;48.210;16.338;2022-12-10T00:01:13;13.73;;;7.28;;
74898;SDS011;63458;48.210;16.338;2022-12-10T00:03:39;11.07;;;6.68;;
74898;SDS011;63458;48.210;16.338;2022-12-10T00:06:07;11.55;;;6.43;;
74898;SDS011;63458;48.210;16.338;2022-12-10T00:08:33;11.65;;;6.63;;
74898;SDS011;63458;48.210;16.338;2022-12-10T00:11:02;12.25;;;7.72;;
74898;SDS011;63458;48.210;16.338;2022-12-10T00:13:28;11.45;;;6.95;;
74898;SDS011;63458;48.210;16.338;2022-12-10T00:15:54;12.35;;;6.63;;
74898;SDS011;63458;48.210;16.338;2022-12-10T00:18:20;10.57;;;5.82;;
74898;SDS011;63458;48.210;16.338;2022-12-10T00:20:46;11.25;;;6.28;;
74898;SDS011;63458;48.210;16.338;2022-12-10T00:23:12;11.43;;;6.28;;
74898;SDS011;63458;48.210;16.338;2022-12-10T00:25:38;10.65;;;6.05;;
74898;SDS011;63458;48.210;16.338;2022-12-10T00:28:04;10.43;;;5.90;;
74898;SDS011;63458;48.210;16.338;2022-12-10T00:30:30;10.07;;;6.03;;
74898;SDS011;63458;48.210;16.338;2022-12-10T00:32:56;10.77;;;6.43;;
74898;SDS011;63458;48.210;16.338;2022-12-10T00:35:22;10.10;;;6.32;;
74898;SDS011;63458;48.210;16.338;2022-12-10T00:37:48;9.93;;;6.18;;
74898;SDS011;63458;48.210;16.338;2022-12-10T00:40:14;10.90;;;6.53;;
74898;SDS011;63458;48.210;16.338;2022-12-10T00:42:40;10.85;;;6.90;;
74898;SDS011;63458;48.210;16.338;2022-12-10T00:45:06;10.57;;;6.18;;
74898;SDS011;63458;48.210;16.338;2022-12-10T00:47:32;10.73;;;5.95;;
74898;SDS011;63458;48.210;16.338;2022-12-10T00:49:58;9.85;;;6.35;;
74898;SDS011;63458;48.210;16.338;2022-12-10T00:52:24;11.73;;;6.43;;
74898;SDS011;63458;48.210;16.338;2022-12-10T00:54:50;10.63;;;6.25;;
74898;SDS011;63458;48.210;16.338;2022-12-10T00:57:16;11.15;;;6.57;;
74898;SDS011;63458;48.210;16.338;2022-12-10T00:59:42;11.13;;;7.38;;
74898;SDS011;63458;48.210;16.338;2022-12-10T01:02:08;10.55;;;6.30;;
74898;SDS011;63458;48.210;16.338;2022-12-10T01:04:34;10.40;;;5.85;;
74898;SDS011;63458;48.210;16.338;2022-12-10T01:07:00;11.75;;;6.90;;
74898;SDS011;63458;48.210;16.338;2022-12-10T01:09:27;11.65;;;6.63;;
74898;SDS011;63458;48.210;16.338;2022-12-10T01:11:55;10.50;;;6.43;;
74898;SDS011;63458;48.210;16.338;2022-12-10T01:14:25;10.70;;;6.60;;
74898;SDS011;63458;48.210;16.338;2022-12-10T01:16:58;12.02;;;6.90;;
74898;SDS011;63458;48.210;16.338;2022-12-10T01:19:25;12.00;;;7.28;;
74898;SDS011;63458;48.210;16.338;2022-12-10T01:21:52;10.68;;;5.78;;
74898;SDS011;63458;48.210;16.338;2022-12-10T01:24:18;10.68;;;6.60;;
74898;SDS011;63458;48.210;16.338;2022-12-10T01:26:44;11.63;;;6.47;;
74898;SDS011;63458;48.210;16.338;2022-12-10T01:29:11;11.10;;;6.70;;
74898;SDS011;63458;48.210;16.338;2022-12-10T01:31:37;9.88;;;6.25;;
74898;SDS011;63458;48.210;16.338;2022-12-10T01:34:04;11.70;;;6.32;;
74898;SDS011;63458;48.210;16.338;2022-12-10T01:36:32;10.35;;;6.13;;
74898;SDS011;63458;48.210;16.338;2022-12-10T01:38:59;10.18;;;6.00;;
74898;SDS011;63458;48.210;16.338;2022-12-10T01:41:27;9.30;;;5.90;;
74898;SDS011;63458;48.210;16.338;2022-12-10T01:44:01;12.25;;;6.15;;
74898;SDS011;63458;48.210;16.338;2022-12-10T01:46:31;9.73;;;5.43;;
74898;SDS011;63458;48.210;16.338;2022-12-10T01:48:57;10.23;;;6.13;;
74898;SDS011;63458;48.210;16.338;2022-12-10T01:51:24;9.25;;;5.85;;
74898;SDS011;63458;48.210;16.338;2022-12-10T01:53:51;9.73;;;5.75;;
74898;SDS011;63458;48.210;16.338;2022-12-10T01:56:18;10.57;;;5.60;;
74898;SDS011;63458;48.210;16.338;2022-12-10T01:58:44;10.23;;;5.85;;
74898;SDS011;63458;48.210;16.338;2022-12-10T02:01:13;9.50;;;5.80;;
74898;SDS011;63458;48.210;16.338;2022-12-10T02:09:09;9.18;;;5.30;;
74898;SDS011;63458;48.210;16.338;2022-12-10T02:11:41;9.80;;;5.65;;
74898;SDS011;63458;48.210;16.338;2022-12-10T02:14:19;9.55;;;5.28;;
74898;SDS011;63458;48.210;16.338;2022-12-10T02:16:58;10.73;;;5.80;;
74898;SDS011;63458;48.210;16.338;2022-12-10T02:21:55;11.13;;;6.15;;
74898;SDS011;63458;48.210;16.338;2022-12-10T02:24:23;9.70;;;6.40;;
74898;SDS011;63458;48.210;16.338;2022-12-10T02:27:03;10.45;;;6.40;;
74898;SDS011;63458;48.210;16.338;2022-12-10T02:29:31;10.65;;;5.95;;
74898;SDS011;63458;48.210;16.338;2022-12-10T02:32:11;10.70;;;6.28;;
74898;SDS011;63458;48.210;16.338;2022-12-10T02:35:00;10.65;;;6.47;;
74898;SDS011;63458;48.210;16.338;2022-12-10T02:37:29;10.10;;;5.88;;
74898;SDS011;63458;48.210;16.338;2022-12-10T02:39:56;11.18;;;6.55;;
74898;SDS011;63458;48.210;16.338;2022-12-10T02:42:23;9.60;;;6.43;;
74898;SDS011;63458;48.210;16.338;2022-12-10T02:44:50;10.55;;;6.45;;
74898;SDS011;63458;48.210;16.338;2022-12-10T02:47:17;10.10;;;6.13;;
74898;SDS011;63458;48.210;16.338;2022-12-10T02:49:44;10.80;;;6.60;;
74898;SDS011;63458;48.210;16.338;2022-12-10T02:52:13;12.30;;;6.97;;
74898;SDS011;63458;48.210;16.338;2022-12-10T02:54:43;10.45;;;6.68;;
74898;SDS011;63458;48.210;16.338;2022-12-10T03:02:17;11.60;;;7.22;;
74898;SDS011;63458;48.210;16.338;2022-12-10T03:04:53;12.00;;;6.85;;
74898;SDS011;63458;48.210;16.338;2022-12-10T03:07:25;11.35;;;7.13;;
74898;SDS011;63458;48.210;16.338;2022-12-10T03:09:53;12.50;;;6.75;;
74898;SDS011;63458;48.210;16.338;2022-12-10T03:12:27;11.45;;;6.45;;
74898;SDS011;63458;48.210;16.338;2022-12-10T03:14:58;11.68;;;7.07;;
74898;SDS011;63458;48.210;16.338;2022-12-10T03:17:24;10.93;;;6.53;;
74898;SDS011;63458;48.210;16.338;2022-12-10T03:19:51;12.10;;;7.03;;
74898;SDS011;63458;48.210;16.338;2022-12-10T03:22:18;12.13;;;7.05;;
74898;SDS011;63458;48.210;16.338;2022-12-10T03:24:44;11.20;;;6.45;;
74898;SDS011;63458;48.210;16.338;2022-12-10T03:27:11;12.50;;;7.50;;
74898;SDS011;63458;48.210;16.338;2022-12-10T03:29:39;12.65;;;7.75;;
74898;SDS011;63458;48.210;16.338;2022-12-10T03:32:06;12.38;;;7.68;;
74898;SDS011;63458;48.210;16.338;2022-12-10T03:34:33;14.98;;;8.73;;
74898;SDS011;63458;48.210;16.338;2022-12-10T03:36:59;12.27;;;7.38;;
74898;SDS011;63458;48.210;16.338;2022-12-10T03:39:25;14.57;;;8.30;;
74898;SDS011;63458;48.210;16.338;2022-12-10T03:41:52;13.48;;;7.95;;
74898;SDS011;63458;48.210;16.338;2022-12-10T03:44:27;13.18;;;7.80;;
74898;SDS011;63458;48.210;16.338;2022-12-10T03:46:54;13.90;;;8.35;;
74898;SDS011;63458;48.210;16.338;2022-12-10T03:49:20;12.73;;;8.00;;
74898;SDS011;63458;48.210;16.338;2022-12-10T03:51:46;13.20;;;7.75;;
74898;SDS011;63458;48.210;16.338;2022-12-10T03:54:12;15.57;;;8.50;;
74898;SDS011;63458;48.210;16.338;2022-12-10T03:56:38;14.18;;;8.35;;
74898;SDS011;63458;48.210;16.338;2022-12-10T03:59:04;13.60;;;8.30;;
74898;SDS011;63458;48.210;16.338;2022-12-10T04:01:30;12.25;;;7.72;;
74898;SDS011;63458;48.210;16.338;2022-12-10T04:03:56;11.98;;;7.60;;
74898;SDS011;63458;48.210;16.338;2022-12-10T04:06:22;13.85;;;7.80;;
74898;SDS011;63458;48.210;16.338;2022-12-10T04:08:48;13.60;;;8.00;;
74898;SDS011;63458;48.210;16.338;2022-12-10T04:11:14;12.80;;;7.72;;
74898;SDS011;63458;48.210;16.338;2022-12-10T04:13:41;14.05;;;8.38;;
74898;SDS011;63458;48.210;16.338;2022-12-10T04:16:26;13.68;;;7.95;;
74898;SDS011;63458;48.210;16.338;2022-12-10T04:18:53;14.18;;;7.93;;
74898;SDS011;63458;48.210;16.338;2022-12-10T04:21:19;14.85;;;8.13;;
74898;SDS011;63458;48.210;16.338;2022-12-10T04:24:04;13.57;;;7.85;;
74898;SDS011;63458;48.210;16.338;2022-12-10T04:26:49;13.55;;;8.40;;
74898;SDS011;63458;48.210;16.338;2022-12-10T04:29:18;15.05;;;8.02;;
74898;SDS011;63458;48.210;16.338;2022-12-10T04:31:45;13.32;;;8.18;;
74898;SDS011;63458;48.210;16.338;2022-12-10T04:34:11;13.40;;;8.48;;
74898;SDS011;63458;48.210;16.338;2022-12-10T04:36:37;14.65;;;8.73;;
74898;SDS011;63458;48.210;16.338;2022-12-10T04:39:03;14.23;;;8.95;;
74898;SDS011;63458;48.210;16.338;2022-12-10T04:41:29;12.95;;;8.88;;
74898;SDS011;63458;48.210;16.338;2022-12-10T04:43:55;14.38;;;8.57;;
74898;SDS011;63458;48.210;16.338;2022-12-10T04:46:21;13.82;;;8.45;;
74898;SDS011;63458;48.210;16.338;2022-12-10T04:48:47;13.90;;;8.40;;
74898;SDS011;63458;48.210;16.338;2022-12-10T04:51:13;13.55;;;8.40;;
74898;SDS011;63458;48.210;16.338;2022-12-10T04:53:39;13.45;;;8.48;;
74898;SDS011;63458;48.210;16.338;2022-12-10T04:56:05;13.45;;;8.90;;
74898;SDS011;63458;48.210;16.338;2022-12-10T04:58:32;14.68;;;8.80;;
74898;SDS011;63458;48.210;16.338;2022-12-10T05:01:04;13.95;;;8.88;;
74898;SDS011;63458;48.210;16.338;2022-12-10T05:03:31;14.48;;;8.57;;
74898;SDS011;63458;48.210;16.338;2022-12-10T05:06:00;16.48;;;9.60;;
74898;SDS011;63458;48.210;16.338;2022-12-10T05:08:27;15.63;;;9.48;;
74898;SDS011;63458;48.210;16.338;2022-12-10T05:10:53;16.80;;;9.63;;
74898;SDS011;63458;48.210;16.338;2022-12-10T05:13:19;14.57;;;9.13;;
74898;SDS011;63458;48.210;16.338;2022-12-10T05:15:45;16.35;;;9.38;;
74898;SDS011;63458;48.210;16.338;2022-12-10T05:18:11;16.13;;;9.15;;
74898;SDS011;63458;48.210;16.338;2022-12-10T05:20:37;16.10;;;9.75;;
74898;SDS011;63458;48.210;16.338;2022-12-10T05:23:03;14.85;;;8.48;;
74898;SDS011;63458;48.210;16.338;2022-12-10T05:25:48;15.98;;;9.07;;
74898;SDS011;63458;48.210;16.338;2022-12-10T05:28:20;17.58;;;9.60;;
74898;SDS011;63458;48.210;16.338;2022-12-10T05:30:46;16.52;;;10.02;;
74898;SDS011;63458;48.210;16.338;2022-12-10T05:33:12;16.80;;;9.40;;
74898;SDS011;63458;48.210;16.338;2022-12-10T05:35:39;15.77;;;9.90;;
74898;SDS011;63458;48.210;16.338;2022-12-10T05:38:05;15.38;;;9.25;;
74898;SDS011;63458;48.210;16.338;2022-12-10T05:40:34;13.38;;;8.60;;
74898;SDS011;63458;48.210;16.338;2022-12-10T05:43:01;17.00;;;9.88;;
74898;SDS011;63458;48.210;16.338;2022-12-10T05:45:27;16.27;;;9.02;;
74898;SDS011;63458;48.210;16.338;2022-12-10T05:47:53;16.92;;;9.52;;
74898;SDS011;63458;48.210;16.338;2022-12-10T05:50:19;16.02;;;9.40;;
74898;SDS011;63458;48.210;16.338;2022-12-10T05:52:45;16.35;;;10.00;;
74898;SDS011;63458;48.210;16.338;2022-12-10T05:55:11;16.30;;;10.07;;
74898;SDS011;63458;48.210;16.338;2022-12-10T05:57:37;17.55;;;10.32;;
74898;SDS011;63458;48.210;16.338;2022-12-10T06:00:03;16.00;;;9.25;;
74898;SDS011;63458;48.210;16.338;2022-12-10T06:02:32;17.02;;;10.50;;
74898;SDS011;63458;48.210;16.338;2022-12-10T06:04:58;16.08;;;10.23;;
74898;SDS011;63458;48.210;16.338;2022-12-10T06:07:24;17.85;;;9.90;;
74898;SDS011;63458;48.210;16.338;2022-12-10T06:09:50;16.70;;;9.95;;
74898;SDS011;63458;48.210;16.338;2022-12-10T06:12:16;19.17;;;10.23;;
74898;SDS011;63458;48.210;16.338;2022-12-10T06:14:42;17.88;;;10.68;;
74898;SDS011;63458;48.210;16.338;2022-12-10T06:17:08;17.08;;;10.60;;
74898;SDS011;63458;48.210;16.338;2022-12-10T06:19:34;17.75;;;10.23;;
74898;SDS011;63458;48.210;16.338;2022-12-10T06:22:00;18.45;;;10.82;;
74898;SDS011;63458;48.210;16.338;2022-12-10T06:24:26;20.92;;;11.15;;
74898;SDS011;63458;48.210;16.338;2022-12-10T06:26:52;17.00;;;10.18;;
74898;SDS011;63458;48.210;16.338;2022-12-10T06:29:18;19.63;;;11.43;;
74898;SDS011;63458;48.210;16.338;2022-12-10T06:31:44;22.48;;;12.20;;
74898;SDS011;63458;48.210;16.338;2022-12-10T06:34:10;18.88;;;10.90;;
74898;SDS011;63458;48.210;16.338;2022-12-10T06:36:36;17.67;;;10.93;;
74898;SDS011;63458;48.210;16.338;2022-12-10T06:39:02;18.98;;;10.95;;
74898;SDS011;63458;48.210;16.338;2022-12-10T06:41:29;18.42;;;11.52;;
74898;SDS011;63458;48.210;16.338;2022-12-10T06:43:55;17.02;;;10.77;;
74898;SDS011;63458;48.210;16.338;2022-12-10T06:46:24;19.00;;;11.25;;
74898;SDS011;63458;48.210;16.338;2022-12-10T06:48:51;20.00;;;11.88;;
74898;SDS011;63458;48.210;16.338;2022-12-10T06:51:18;18.42;;;11.30;;
74898;SDS011;63458;48.210;16.338;2022-12-10T06:53:44;20.40;;;11.30;;
74898;SDS011;63458;48.210;16.338;2022-12-10T06:56:14;20.20;;;11.95;;
74898;SDS011;63458;48.210;16.338;2022-12-10T06:58:41;19.33;;;12.27;;
74898;SDS011;63458;48.210;16.338;2022-12-10T07:01:27;19.00;;;11.93;;
74898;SDS011;63458;48.210;16.338;2022-12-10T07:03:53;20.70;;;11.30;;
74898;SDS011;63458;48.210;16.338;2022-12-10T07:06:20;22.13;;;11.85;;
74898;SDS011;63458;48.210;16.338;2022-12-10T07:08:47;19.90;;;11.35;;
74898;SDS011;63458;48.210;16.338;2022-12-10T07:11:13;19.67;;;11.50;;
74898;SDS011;63458;48.210;16.338;2022-12-10T07:13:40;21.67;;;12.02;;
74898;SDS011;63458;48.210;16.338;2022-12-10T07:16:19;21.45;;;12.25;;
74898;SDS011;63458;48.210;16.338;2022-12-10T07:18:45;20.38;;;11.50;;
74898;SDS011;63458;48.210;16.338;2022-12-10T07:21:12;21.63;;;13.05;;
74898;SDS011;63458;48.210;16.338;2022-12-10T07:23:39;21.95;;;12.25;;
74898;SDS011;63458;48.210;16.338;2022-12-10T07:26:05;20.17;;;11.98;;
74898;SDS011;63458;48.210;16.338;2022-12-10T07:28:31;20.73;;;12.85;;
74898;SDS011;63458;48.210;16.338;2022-12-10T07:31:04;20.02;;;11.93;;
74898;SDS011;63458;48.210;16.338;2022-12-10T07:33:30;19.98;;;11.25;;
74898;SDS011;63458;48.210;16.338;2022-12-10T07:35:56;23.58;;;12.95;;
74898;SDS011;63458;48.210;16.338;2022-12-10T07:38:23;22.10;;;12.70;;
74898;SDS011;63458;48.210;16.338;2022-12-10T07:40:49;24.27;;;12.35;;
74898;SDS011;63458;48.210;16.338;2022-12-10T07:43:15;22.75;;;13.15;;
74898;SDS011;63458;48.210;16.338;2022-12-10T07:45:41;20.85;;;12.52;;
74898;SDS011;63458;48.210;16.338;2022-12-10T07:48:08;23.95;;;13.40;;
74898;SDS011;63458;48.210;16.338;2022-12-10T07:50:34;23.67;;;13.15;;
74898;SDS011;63458;48.210;16.338;2022-12-10T07:53:00;24.25;;;13.05;;
74898;SDS011;63458;48.210;16.338;2022-12-10T07:55:26;23.38;;;13.05;;
74898;SDS011;63458;48.210;16.338;2022-12-10T07:57:52;21.90;;;12.88;;
74898;SDS011;63458;48.210;16.338;2022-12-10T08:00:18;21.02;;;12.07;;
74898;SDS011;63458;48.210;16.338;2022-12-10T08:02:44;22.20;;;12.38;;
74898;SDS011;63458;48.210;16.338;2022-12-10T08:05:10;21.90;;;11.82;;
74898;SDS011;63458;48.210;16.338;2022-12-10T08:07:36;20.58;;;12.02;;
74898;SDS011;63458;48.210;16.338;2022-12-10T08:10:02;20.88;;;11.93;;
74898;SDS011;63458;48.210;16.338;2022-12-10T08:12:28;21.92;;;12.32;;
74898;SDS011;63458;48.210;16.338;2022-12-10T08:14:55;22.33;;;13.43;;
74898;SDS011;63458;48.210;16.338;2022-12-10T08:17:21;20.85;;;12.23;;
74898;SDS011;63458;48.210;16.338;2022-12-10T08:19:47;22.17;;;12.85;;
74898;SDS011;63458;48.210;16.338;2022-12-10T08:22:14;23.13;;;13.88;;
74898;SDS011;63458;48.210;16.338;2022-12-10T08:24:40;19.45;;;12.02;;
74898;SDS011;63458;48.210;16.338;2022-12-10T08:27:06;24.85;;;12.15;;
74898;SDS011;63458;48.210;16.338;2022-12-10T08:29:32;20.40;;;10.73;;
74898;SDS011;63458;48.210;16.338;2022-12-10T08:31:58;21.80;;;11.93;;
74898;SDS011;63458;48.210;16.338;2022-12-10T08:34:24;20.58;;;11.57;;
74898;SDS011;63458;48.210;16.338;2022-12-10T08:36:50;21.40;;;12.30;;
74898;SDS011;63458;48.210;16.338;2022-12-10T08:39:16;22.15;;;11.75;;
74898;SDS011;63458;48.210;16.338;2022-12-10T08:41:43;21.08;;;12.15;;
74898;SDS011;63458;48.210;16.338;2022-12-10T08:44:09;22.92;;;12.55;;
74898;SDS011;63458;48.210;16.338;2022-12-10T08:46:36;21.63;;;12.25;;
74898;SDS011;63458;48.210;16.338;2022-12-10T08:49:02;20.20;;;12.63;;
74898;SDS011;63458;48.210;16.338;2022-12-10T08:51:28;23.33;;;13.25;;
74898;SDS011;63458;48.210;16.338;2022-12-10T08:53:54;21.13;;;12.50;;
74898;SDS011;63458;48.210;16.338;2022-12-10T08:56:20;22.90;;;13.07;;
74898;SDS011;63458;48.210;16.338;2022-12-10T08:58:46;21.60;;;13.30;;
74898;SDS011;63458;48.210;16.338;2022-12-10T09:01:14;22.63;;;13.55;;
74898;SDS011;63458;48.210;16.338;2022-12-10T09:03:40;24.77;;;13.90;;
74898;SDS011;63458;48.210;16.338;2022-12-10T09:06:08;23.63;;;14.23;;
74898;SDS011;63458;48.210;16.338;2022-12-10T09:08:34;24.00;;;13.38;;
74898;SDS011;63458;48.210;16.338;2022-12-10T09:11:04;22.85;;;13.65;;
74898;SDS011;63458;48.210;16.338;2022-12-10T09:13:30;20.98;;;12.07;;
74898;SDS011;63458;48.210;16.338;2022-12-10T09:15:56;23.20;;;13.70;;
74898;SDS011;63458;48.210;16.338;2022-12-10T09:18:22;21.42;;;13.55;;
74898;SDS011;63458;48.210;16.338;2022-12-10T09:20:48;21.90;;;12.60;;
74898;SDS011;63458;48.210;16.338;2022-12-10T09:23:14;24.88;;;12.98;;
74898;SDS011;63458;48.210;16.338;2022-12-10T09:25:40;20.58;;;12.60;;
74898;SDS011;63458;48.210;16.338;2022-12-10T09:28:06;21.65;;;13.50;;
74898;SDS011;63458;48.210;16.338;2022-12-10T09:30:32;21.65;;;13.40;;
74898;SDS011;63458;48.210;16.338;2022-12-10T09:32:58;21.25;;;13.52;;
74898;SDS011;63458;48.210;16.338;2022-12-10T09:35:24;24.27;;;13.85;;
74898;SDS011;63458;48.210;16.338;2022-12-10T09:37:50;21.83;;;12.43;;
74898;SDS011;63458;48.210;16.338;2022-12-10T09:40:17;24.48;;;13.60;;
74898;SDS011;63458;48.210;16.338;2022-12-10T09:50:29;23.02;;;13.60;;
74898;SDS011;63458;48.210;16.338;2022-12-10T09:52:56;21.35;;;12.40;;
74898;SDS011;63458;48.210;16.338;2022-12-10T09:55:30;22.17;;;13.90;;
74898;SDS011;63458;48.210;16.338;2022-12-10T09:57:58;21.55;;;12.57;;
74898;SDS011;63458;48.210;16.338;2022-12-10T10:02:55;19.85;;;12.18;;
74898;SDS011;63458;48.210;16.338;2022-12-10T10:05:26;23.17;;;13.82;;
74898;SDS011;63458;48.210;16.338;2022-12-10T10:07:55;22.25;;;12.73;;
74898;SDS011;63458;48.210;16.338;2022-12-10T10:10:29;22.85;;;13.05;;
74898;SDS011;63458;48.210;16.338;2022-12-10T10:13:11;24.25;;;12.40;;
74898;SDS011;63458;48.210;16.338;2022-12-10T10:15:40;21.67;;;12.82;;
74898;SDS011;63458;48.210;16.338;2022-12-10T10:20:35;23.02;;;13.80;;
74898;SDS011;63458;48.210;16.338;2022-12-10T10:23:01;22.90;;;14.70;;
74898;SDS011;63458;48.210;16.338;2022-12-10T10:25:27;22.42;;;13.80;;
74898;SDS011;63458;48.210;16.338;2022-12-10T10:27:54;23.85;;;13.70;;
74898;SDS011;63458;48.210;16.338;2022-12-10T10:30:21;23.13;;;12.82;;
74898;SDS011;63458;48.210;16.338;2022-12-10T10:32:52;23.20;;;13.20;;
74898;SDS011;63458;48.210;16.338;2022-12-10T10:35:31;25.35;;;15.05;;
74898;SDS011;63458;48.210;16.338;2022-12-10T10:37:59;23.77;;;14.05;;
74898;SDS011;63458;48.210;16.338;2022-12-10T10:40:27;25.48;;;14.57;;
74898;SDS011;63458;48.210;16.338;2022-12-10T10:42:56;23.92;;;14.07;;
74898;SDS011;63458;48.210;16.338;2022-12-10T10:50:44;24.27;;;13.95;;
74898;SDS011;63458;48.210;16.338;2022-12-10T10:55:55;23.70;;;12.95;;
74898;SDS011;63458;48.210;16.338;2022-12-10T10:58:22;20.70;;;13.32;;
74898;SDS011;63458;48.210;16.338;2022-12-10T11:00:56;19.98;;;12.40;;
74898;SDS011;63458;48.210;16.338;2022-12-10T11:03:22;24.30;;;14.50;;
74898;SDS011;63458;48.210;16.338;2022-12-10T11:05:48;22.58;;;12.52;;
74898;SDS011;63458;48.210;16.338;2022-12-10T11:08:18;23.85;;;13.93;;
74898;SDS011;63458;48.210;16.338;2022-12-10T11:10:54;23.92;;;14.05;;
74898;SDS011;63458;48.210;16.338;2022-12-10T11:13:26;24.92;;;13.80;;
74898;SDS011;63458;48.210;16.338;2022-12-10T11:16:38;24.00;;;14.15;;
74898;SDS011;63458;48.210;16.338;2022-12-10T11:18:41;23.45;;;13.52;;
74898;SDS011;63458;48.210;16.338;2022-12-10T11:23:51;54.00;;;28.95;;
74898;SDS011;63458;48.210;16.338;2022-12-10T11:39:30;28.60;;;14.85;;
74898;SDS011;63458;48.210;16.338;2022-12-10T11:55:01;25.27;;;15.95;;
74898;SDS011;63458;48.210;16.338;2022-12-10T11:57:38;44.60;;;24.33;;
74898;SDS011;63458;48.210;16.338;2022-12-10T12:00:23;24.65;;;14.65;;
74898;SDS011;63458;48.210;16.338;2022-12-10T12:06:01;25.30;;;15.13;;
74898;SDS011;63458;48.210;16.338;2022-12-10T12:08:12;24.55;;;13.77;;
74898;SDS011;63458;48.210;16.338;2022-12-10T12:10:52;52.20;;;33.42;;
74898;SDS011;63458;48.210;16.338;2022-12-10T12:15:50;33.42;;;18.38;;
74898;SDS011;63458;48.210;16.338;2022-12-10T12:18:21;28.13;;;15.93;;
74898;SDS011;63458;48.210;16.338;2022-12-10T12:20:53;28.88;;;16.23;;
74898;SDS011;63458;48.210;16.338;2022-12-10T12:25:51;27.50;;;15.38;;
74898;SDS011;63458;48.210;16.338;2022-12-10T12:30:48;26.48;;;16.75;;
74898;SDS011;63458;48.210;16.338;2022-12-10T12:33:40;25.88;;;15.05;;
74898;SDS011;63458;48.210;16.338;2022-12-10T12:38:30;26.70;;;14.50;;
74898;SDS011;63458;48.210;16.338;2022-12-10T12:43:24;24.13;;;14.15;;
74898;SDS011;63458;48.210;16.338;2022-12-10T12:45:52;24.13;;;15.18;;
74898;SDS011;63458;48.210;16.338;2022-12-10T12:48:22;48.60;;;25.38;;
74898;SDS011;63458;48.210;16.338;2022-12-10T12:50:51;33.85;;;18.85;;
74898;SDS011;63458;48.210;16.338;2022-12-10T12:53:20;31.50;;;18.10;;
74898;SDS011;63458;48.210;16.338;2022-12-10T13:00:55;26.13;;;15.52;;
74898;SDS011;63458;48.210;16.338;2022-12-10T13:05:51;29.50;;;16.42;;
74898;SDS011;63458;48.210;16.338;2022-12-10T13:10:48;27.83;;;15.93;;
74898;SDS011;63458;48.210;16.338;2022-12-10T13:13:28;26.95;;;15.32;;
74898;SDS011;63458;48.210;16.338;2022-12-10T13:15:55;25.95;;;14.20;;
74898;SDS011;63458;48.210;16.338;2022-12-10T13:18:35;26.02;;;15.35;;
74898;SDS011;63458;48.210;16.338;2022-12-10T13:24:07;21.65;;;13.27;;
74898;SDS011;63458;48.210;16.338;2022-12-10T13:26:33;25.40;;;13.63;;
74898;SDS011;63458;48.210;16.338;2022-12-10T13:29:42;23.90;;;13.07;;
74898;SDS011;63458;48.210;16.338;2022-12-10T13:31:56;26.27;;;15.63;;
74898;SDS011;63458;48.210;16.338;2022-12-10T13:34:30;26.15;;;14.95;;
74898;SDS011;63458;48.210;16.338;2022-12-10T13:39:53;27.45;;;14.30;;
74898;SDS011;63458;48.210;16.338;2022-12-10T13:42:24;23.05;;;13.10;;
74898;SDS011;63458;48.210;16.338;2022-12-10T13:52:54;23.90;;;12.80;;
74898;SDS011;63458;48.210;16.338;2022-12-10T13:55:30;26.45;;;14.95;;
74898;SDS011;63458;48.210;16.338;2022-12-10T14:00:31;24.35;;;14.25;;
74898;SDS011;63458;48.210;16.338;2022-12-10T14:05:47;23.85;;;13.60;;
74898;SDS011;63458;48.210;16.338;2022-12-10T14:08:17;25.33;;;14.88;;
74898;SDS011;63458;48.210;16.338;2022-12-10T14:10:44;27.38;;;15.23;;
74898;SDS011;63458;48.210;16.338;2022-12-10T14:13:11;26.65;;;15.00;;
74898;SDS011;63458;48.210;16.338;2022-12-10T14:18:14;25.88;;;13.35;;
74898;SDS011;63458;48.210;16.338;2022-12-10T14:20:46;28.75;;;15.13;;
74898;SDS011;63458;48.210;16.338;2022-12-10T14:23:26;27.00;;;14.32;;
74898;SDS011;63458;48.210;16.338;2022-12-10T14:25:58;26.73;;;14.85;;
74898;SDS011;63458;48.210;16.338;2022-12-10T14:28:24;24.70;;;14.43;;
74898;SDS011;63458;48.210;16.338;2022-12-10T14:30:50;26.10;;;15.80;;
74898;SDS011;63458;48.210;16.338;2022-12-10T14:33:20;21.58;;;13.25;;
74898;SDS011;63458;48.210;16.338;2022-12-10T14:35:47;25.10;;;14.35;;
74898;SDS011;63458;48.210;16.338;2022-12-10T14:38:17;25.67;;;14.98;;
74898;SDS011;63458;48.210;16.338;2022-12-10T14:40:44;24.42;;;14.15;;
74898;SDS011;63458;48.210;16.338;2022-12-10T14:43:32;25.55;;;14.82;;
74898;SDS011;63458;48.210;16.338;2022-12-10T14:45:57;24.55;;;13.88;;
74898;SDS011;63458;48.210;16.338;2022-12-10T14:48:24;27.60;;;14.23;;
74898;SDS011;63458;48.210;16.338;2022-12-10T14:50:50;27.92;;;13.95;;
74898;SDS011;63458;48.210;16.338;2022-12-10T14:53:18;29.33;;;15.82;;
74898;SDS011;63458;48.210;16.338;2022-12-10T14:55:45;26.20;;;15.50;;
74898;SDS011;63458;48.210;16.338;2022-12-10T14:58:19;26.10;;;14.77;;
74898;SDS011;63458;48.210;16.338;2022-12-10T15:00:49;27.38;;;15.25;;
74898;SDS011;63458;48.210;16.338;2022-12-10T15:03:21;25.35;;;14.38;;
74898;SDS011;63458;48.210;16.338;2022-12-10T15:05:58;26.15;;;14.95;;
74898;SDS011;63458;48.210;16.338;2022-12-10T15:08:26;24.30;;;13.70;;
74898;SDS011;63458;48.210;16.338;2022-12-10T15:10:54;25.65;;;15.52;;
74898;SDS011;63458;48.210;16.338;2022-12-10T15:13:22;28.63;;;17.33;;
74898;SDS011;63458;48.210;16.338;2022-12-10T15:15:50;25.00;;;14.63;;
74898;SDS011;63458;48.210;16.338;2022-12-10T15:18:18;26.25;;;14.27;;
74898;SDS011;63458;48.210;16.338;2022-12-10T15:26:04;26.42;;;13.90;;
74898;SDS011;63458;48.210;16.338;2022-12-10T15:28:31;24.80;;;14.32;;
74898;SDS011;63458;48.210;16.338;2022-12-10T15:31:08;27.00;;;15.93;;
74898;SDS011;63458;48.210;16.338;2022-12-10T15:33:48;26.88;;;16.48;;
74898;SDS011;63458;48.210;16.338;2022-12-10T15:36:16;25.45;;;14.05;;
74898;SDS011;63458;48.210;16.338;2022-12-10T15:38:44;27.13;;;14.55;;
74898;SDS011;63458;48.210;16.338;2022-12-10T15:47:01;28.45;;;16.48;;
74898;SDS011;63458;48.210;16.338;2022-12-10T15:49:29;30.60;;;16.83;;
74898;SDS011;63458;48.210;16.338;2022-12-10T15:51:55;29.63;;;16.40;;
74898;SDS011;63458;48.210;16.338;2022-12-10T15:54:23;31.00;;;17.35;;
74898;SDS011;63458;48.210;16.338;2022-12-10T15:56:52;31.77;;;18.80;;
74898;SDS011;63458;48.210;16.338;2022-12-10T15:59:19;26.90;;;15.95;;
74898;SDS011;63458;48.210;16.338;2022-12-10T16:01:45;31.27;;;16.58;;
74898;SDS011;63458;48.210;16.338;2022-12-10T16:04:11;28.50;;;15.70;;
74898;SDS011;63458;48.210;16.338;2022-12-10T16:06:38;27.08;;;15.00;;
74898;SDS011;63458;48.210;16.338;2022-12-10T16:09:04;29.55;;;17.88;;
74898;SDS011;63458;48.210;16.338;2022-12-10T16:11:31;29.75;;;16.60;;
74898;SDS011;63458;48.210;16.338;2022-12-10T16:13:58;29.05;;;17.40;;
74898;SDS011;63458;48.210;16.338;2022-12-10T16:16:24;31.08;;;15.93;;
74898;SDS011;63458;48.210;16.338;2022-12-10T16:18:51;26.20;;;15.38;;
74898;SDS011;63458;48.210;16.338;2022-12-10T16:21:17;28.90;;;17.13;;